Relevés horaires Bierset (Belgique)


Relevés horaires à Bierset - Vendredi 06 Nov. 2020
Heure UTC1 Température [°C] Vent [km/h] Hum. [%] Pres.4 [hPa] Visi. [Km] Nébu. [octa] Préc.5 [mm] Cond.
2m. Res. Ros. Dir.2 Vit. Moy. Raf.3
23:00 6.6 6.6 1.4 NNO 1.9 9.3 18.5 69 1025.7(-1.3/3h) 30 0/8 -- --
22:00 7.0 5.2 1.0 SSE 9.3 13.0 27.8 66 1025.9(-1.4/3h) 30 0/8 -- --
21:00 6.9 5.5 -- SE 7.4 9.3 18.5 -- 1026.5(-1.4/3h) 30 0/8 -- --
20:00 7.0 7.0 -2.0 SE 3.7 5.6 18.5 53 1027(-1.4/3h) 30 0/8 -- --
19:00 8.2 8.2 -4.7 ESE 3.7 5.6 14.8 40 1027.2(-1.3/3h) 30 0/8 -- --
18:00 8.8 8.2 -4.9 E 5.6 7.4 22.2 37 1027.8(-1.3/3h) 30 0/8 0/12h
--
17:00 10.2 9.8 -5.2 E 5.6 7.4 16.7 33 1028.2(-1.7/3h) 30 0/8 -- --
16:00 11.5 11.3 -4.5 E 5.6 7.4 22.2 32 1028.3(-2.4/3h) 30 0/8 -- --
15:00 12.9 12.9 -4.5 E 5.6 5.6 13.0 29 1028.8(-2.8/3h) 30 0/8 -- --
14:00 12.7 12.7 4.2 NNE 3.7 5.6 9.3 56 1029.6(-2.8/3h) 30 0/8 -- --
13:00 12.4 12.3 1.4 NE 5.6 5.6 13.0 47 1030.6(-2.6/3h) 30 1/8 -- --
12:00 12.3 12.3 -0.3 ESE 3.7 9.3 18.5 42 1031.7(-2.0/3h) 30 3/8 0/6h
--
11:00 11.6 11.6 -0.1 ESE 3.7 3.7 11.1 44 1032.6(-1.0/3h) 30 3/8 -- --
10:00 9.6 9.6 -0.2 ESE 3.7 3.7 11.1 50 1033.5(-0.3/3h) 30 4/8 -- --
09:00 6.7 6.7 -0.5 ESE 3.7 9.3 18.5 60 1034.1(-0.2/3h) 30 4/8 -- --
08:00 4.4 2.6 -0.7 SE 7.4 9.3 13.0 69 1034.2(-0.6/3h) 30 4/8 -- --
07:00 2.5 0.4 -0.1 ESE 7.4 7.4 18.5 83 1034.4(-0.9/3h) 10 3/8 -- --
06:00 2.0 0.4 0.2 SE 5.6 5.6 13.0 88 1034.7(-0.8/3h) 10 2/8 0/12h
--
05:00 2.9 2.9 0.4 ESE 3.7 5.6 13.0 84 1034.9(-0.9/3h) 6 2/8 -- --
04:00 3.2 3.2 0.1 S 1.9 1.9 13.0 80 1035.2(-1.2/3h) 8 2/8 -- --
03:00 2.1 2.1 0.8 SSE 1.9 5.6 9.3 91 1035.5(-1.1/3h) 12 2/8 -- --
02:00 2.9 2.9 0.2 SSE 1.9 3.7 9.3 82 1035.9(-1.1/3h) 10 2/8 -- --
01:00 3.8 3.8 0.3 E 1.9 5.6 9.3 78 1036.4(-1.1/3h) 10 2/8 -- --
00:00 3.5 2.1 1.3 SE 5.6 7.4 18.5 85 1036.5(-1.2/3h) 11 2/8 0/6h
0/24h
--

1 Coordinated Universal Time. Actuellement il est 18:00 locale et 16:00 UTC.

2 Le vent souffle depuis la direction indiquée vers la direction oposée.

3 Les rafales max. sont disponible 40 min après l'heure du relevé.

4 Pour les stations d'altitude (plus de 600m) le géopotentiel du niveau le plus proche de la pression obligatoire est indiqué.

5 Les stations disposant d'un diffuseur peuvent indiquer "trace". Cela signifie que des précipitations ont touchés le sol mais que la quantité est inférieure à 0.1 mm.

Récapitulatif de la journée
Température [°C] Vent [km/h] Ensoleillement4 [h] Precipitations totale5 [mm] Pression [Hpa]
Min1 Max.2 Moy.3 Max. Min Max.
1.6 13.4 6.7 27.8 0 h 0 min 0 1025.7 1036.5

1 Température minimale relevée entre 18:00 UTC la veille et 18:00 UTC le jour donné.

2 Température maximale relevée entre 06:00 UTC le jour donné et 06:00 UTC le lendemain.

3 Vent moyen de la journée basé sur les relevés horaires.

4 Ensoleillement en heures relevé entre 06:00 UTC la veille et 06:00 UTC le jour donné.

5 Précipitations totales tombées entre 06:00 UTC la jour donné et 06:00 UTC le lendemain.

Graphiques horaires